Time;durP1;ratioP1;P1;durP2;ratioP2;P2;SDS_P1;SDS_P2;PMS_P1;PMS_P2;Temp;Humidity;BMP_temperature;BMP_pressure;BME280_temperature;BME280_humidity;BME280_pressure;Samples;Min_cycle;Max_cycle;Signal;HPM_P1;HPM_P2
2023/10/28 00:00:43;;;;;;;3.22;0.47;;;9.50;99.90;;;;;;5028808;28;20036;-88
2023/10/28 00:03:09;;;;;;;1.30;0.40;;;9.50;99.90;;;;;;5031304;28;20030;-88
2023/10/28 00:05:35;;;;;;;2.72;0.40;;;9.60;99.90;;;;;;5032324;28;20091;-89
2023/10/28 00:08:03;;;;;;;1.60;0.32;;;9.60;99.90;;;;;;5031900;28;20037;-90
2023/10/28 00:10:33;;;;;;;4.20;0.60;;;9.50;99.90;;;;;;5014887;28;20380;-88
2023/10/28 00:13:01;;;;;;;1.50;0.32;;;9.60;99.90;;;;;;5044444;28;20473;-88
2023/10/28 00:15:27;;;;;;;2.25;0.50;;;9.50;99.90;;;;;;5032288;28;20029;-90
2023/10/28 00:17:53;;;;;;;1.40;0.40;;;9.50;99.90;;;;;;5033017;28;20079;-89
2023/10/28 00:20:20;;;;;;;2.20;0.40;;;9.50;99.90;;;;;;5042697;28;20033;-90
2023/10/28 00:22:48;;;;;;;1.75;0.57;;;9.50;99.90;;;;;;5044116;28;20036;-91
2023/10/28 00:25:15;;;;;;;2.28;0.40;;;9.50;99.90;;;;;;5027533;28;20109;-90
2023/10/28 00:27:41;;;;;;;3.05;0.50;;;9.50;99.90;;;;;;5033996;28;20036;-89
2023/10/28 00:30:11;;;;;;;3.83;0.60;;;9.60;99.90;;;;;;5045158;28;20040;-88
2023/10/28 00:32:41;;;;;;;3.08;0.40;;;9.60;99.90;;;;;;5015838;28;20021;-87
2023/10/28 00:35:08;;;;;;;1.58;0.40;;;9.60;99.90;;;;;;5043118;28;20284;-88
2023/10/28 00:37:35;;;;;;;1.35;0.40;;;9.60;99.90;;;;;;5047799;28;20108;-87
2023/10/28 00:40:01;;;;;;;1.23;0.38;;;9.60;99.90;;;;;;5032527;28;20037;-87
2023/10/28 00:42:27;;;;;;;2.33;0.45;;;9.60;99.90;;;;;;5028781;28;20030;-89
2023/10/28 00:44:54;;;;;;;3.42;0.50;;;9.60;99.90;;;;;;5031304;28;20045;-88
2023/10/28 00:47:23;;;;;;;2.45;0.50;;;9.70;99.90;;;;;;5012509;28;20182;-88
2023/10/28 00:49:50;;;;;;;1.73;0.40;;;9.70;99.90;;;;;;5045707;28;20406;-89
2023/10/28 00:52:18;;;;;;;3.25;0.40;;;9.70;99.90;;;;;;5046875;28;20028;-91
2023/10/28 00:54:47;;;;;;;4.90;0.60;;;9.80;99.90;;;;;;5031251;28;20036;-87
2023/10/28 00:57:16;;;;;;;3.50;0.50;;;9.70;99.90;;;;;;5049086;28;20036;-84
2023/10/28 00:59:42;;;;;;;3.80;0.93;;;9.80;99.90;;;;;;5044308;28;20034;-91
2023/10/28 01:02:10;;;;;;;3.17;0.60;;;9.70;99.90;;;;;;5030486;28;20027;-90
2023/10/28 01:04:36;;;;;;;2.35;0.60;;;9.70;99.90;;;;;;5045503;28;20035;-89
2023/10/28 01:07:02;;;;;;;2.60;0.50;;;9.70;99.90;;;;;;5044848;28;20059;-90
2023/10/28 01:09:28;;;;;;;1.40;0.43;;;9.70;99.90;;;;;;5033117;28;20086;-87
2023/10/28 01:11:55;;;;;;;4.32;0.45;;;9.70;99.90;;;;;;5028598;28;20033;-87
2023/10/28 01:14:21;;;;;;;4.93;0.60;;;9.70;99.90;;;;;;5025550;28;20033;-88
2023/10/28 01:16:49;;;;;;;1.52;0.40;;;9.70;99.90;;;;;;5029420;28;20047;-89
2023/10/28 01:19:15;;;;;;;2.40;0.40;;;9.70;99.90;;;;;;5030184;28;20063;-88
2023/10/28 01:21:42;;;;;;;3.80;0.70;;;9.70;99.90;;;;;;5028537;28;20029;-88
2023/10/28 01:24:08;;;;;;;3.67;0.47;;;9.70;99.90;;;;;;5032823;28;20033;-87
2023/10/28 01:26:34;;;;;;;1.52;0.50;;;9.70;99.90;;;;;;5029314;28;20440;-86
2023/10/28 01:29:00;;;;;;;1.95;0.50;;;9.70;99.90;;;;;;5032112;28;20044;-88
2023/10/28 01:31:27;;;;;;;3.38;0.52;;;9.70;99.90;;;;;;5029438;28;20031;-88
2023/10/28 01:33:54;;;;;;;2.35;0.30;;;9.70;99.90;;;;;;5029224;28;20570;-85
2023/10/28 01:36:19;;;;;;;2.55;0.90;;;9.70;99.90;;;;;;5028651;28;20041;-88
2023/10/28 01:38:45;;;;;;;3.10;0.52;;;9.70;99.90;;;;;;5012511;28;20125;-88
2023/10/28 01:41:13;;;;;;;2.38;0.40;;;9.70;99.90;;;;;;5026950;28;20022;-87
2023/10/28 01:43:45;;;;;;;1.77;0.60;;;9.70;99.90;;;;;;5028264;28;20041;-88
2023/10/28 01:46:12;;;;;;;1.98;0.40;;;9.70;99.90;;;;;;5007164;28;20347;-86
2023/10/28 01:48:37;;;;;;;2.88;0.38;;;9.70;99.90;;;;;;5023476;28;20033;-87
2023/10/28 01:51:03;;;;;;;0.88;0.30;;;9.70;99.90;;;;;;5041634;28;20494;-89
2023/10/28 01:53:30;;;;;;;1.35;0.60;;;9.70;99.90;;;;;;5026791;28;20057;-87
2023/10/28 01:55:57;;;;;;;1.65;0.50;;;9.70;99.90;;;;;;5041785;28;20493;-87
2023/10/28 01:58:24;;;;;;;1.73;0.40;;;9.70;99.90;;;;;;5024359;28;20029;-87
2023/10/28 02:00:50;;;;;;;4.47;0.50;;;9.70;99.90;;;;;;5010136;28;20028;-86
2023/10/28 02:03:15;;;;;;;2.50;0.50;;;9.70;99.90;;;;;;5027110;28;20030;-86
2023/10/28 02:05:41;;;;;;;1.35;0.40;;;9.70;99.90;;;;;;5010557;28;20112;-87
2023/10/28 02:08:07;;;;;;;4.65;0.50;;;9.70;99.90;;;;;;5008444;28;20034;-86
2023/10/28 02:10:33;;;;;;;2.35;0.40;;;9.70;99.90;;;;;;5025507;28;20116;-87
2023/10/28 02:12:59;;;;;;;1.40;0.30;;;9.70;99.90;;;;;;5011065;28;20029;-86
2023/10/28 02:15:25;;;;;;;1.95;0.40;;;9.70;99.90;;;;;;5006848;28;20472;-85
2023/10/28 02:17:52;;;;;;;2.67;0.40;;;9.70;99.90;;;;;;5005112;28;20556;-87
2023/10/28 02:20:18;;;;;;;2.28;0.50;;;9.70;99.90;;;;;;5010798;28;20034;-85
2023/10/28 02:22:44;;;;;;;2.13;0.40;;;9.70;99.90;;;;;;5010836;28;20486;-86
2023/10/28 02:25:10;;;;;;;2.22;0.50;;;9.70;99.90;;;;;;5021364;28;20036;-87
2023/10/28 02:27:37;;;;;;;1.80;0.35;;;9.70;99.90;;;;;;5006038;28;20033;-86
2023/10/28 02:30:09;;;;;;;2.22;0.38;;;9.80;99.90;;;;;;5024741;28;20041;-86
2023/10/28 02:32:36;;;;;;;1.80;0.50;;;9.70;99.90;;;;;;5011575;28;20033;-86
2023/10/28 02:35:02;;;;;;;1.30;0.38;;;9.70;99.90;;;;;;5008060;28;20025;-87
2023/10/28 02:37:29;;;;;;;2.22;0.40;;;9.70;99.90;;;;;;5023151;28;20068;-86
2023/10/28 02:39:55;;;;;;;1.67;0.35;;;9.80;99.90;;;;;;5025059;28;20439;-87
2023/10/28 02:42:24;;;;;;;2.53;0.40;;;9.70;99.90;;;;;;5023157;28;20113;-86
2023/10/28 02:44:50;;;;;;;0.90;0.30;;;9.80;99.90;;;;;;5006669;28;20041;-89
2023/10/28 02:47:16;;;;;;;1.40;0.40;;;9.70;99.90;;;;;;5008585;28;20394;-87
2023/10/28 02:49:42;;;;;;;1.98;0.30;;;9.70;99.90;;;;;;5023994;28;20037;-85
2023/10/28 02:52:08;;;;;;;1.65;0.30;;;9.80;99.90;;;;;;5041376;28;20022;-88
2023/10/28 02:54:37;;;;;;;1.15;0.30;;;9.80;99.90;;;;;;5011023;28;20120;-87
2023/10/28 02:57:03;;;;;;;2.13;0.37;;;9.90;99.90;;;;;;5007925;28;20029;-90
2023/10/28 02:59:29;;;;;;;0.90;0.20;;;9.80;99.90;;;;;;5023138;28;20037;-89
2023/10/28 03:01:55;;;;;;;2.00;0.25;;;9.80;99.90;;;;;;5025004;28;20093;-87
2023/10/28 03:04:21;;;;;;;1.92;0.28;;;9.80;99.90;;;;;;5009964;28;20034;-86
2023/10/28 03:06:47;;;;;;;1.77;0.30;;;9.80;99.90;;;;;;5032360;28;20032;-87
2023/10/28 03:09:13;;;;;;;1.65;0.40;;;9.80;99.90;;;;;;5038549;28;20042;-87
2023/10/28 03:11:38;;;;;;;0.80;0.20;;;9.80;99.90;;;;;;5023903;28;20032;-88
2023/10/28 03:14:05;;;;;;;0.75;0.30;;;9.80;99.90;;;;;;5024374;28;20087;-86
2023/10/28 03:16:31;;;;;;;2.38;0.20;;;9.80;99.90;;;;;;5022697;28;20124;-87
2023/10/28 03:18:58;;;;;;;1.00;0.30;;;9.80;99.90;;;;;;5027542;28;20478;-87
2023/10/28 03:21:24;;;;;;;1.08;0.20;;;9.80;99.90;;;;;;5008881;28;20032;-88
2023/10/28 03:23:50;;;;;;;2.85;0.20;;;9.80;99.90;;;;;;5042336;28;20037;-88
2023/10/28 03:26:15;;;;;;;1.55;0.20;;;9.80;99.90;;;;;;5010599;28;20384;-86
2023/10/28 03:28:41;;;;;;;1.42;0.20;;;9.70;99.90;;;;;;5024796;28;20034;-86
2023/10/28 03:31:11;;;;;;;0.82;0.20;;;9.70;99.90;;;;;;5028598;28;20021;-88
2023/10/28 03:33:38;;;;;;;0.68;0.15;;;9.70;99.90;;;;;;5013745;28;20057;-87
2023/10/28 03:36:05;;;;;;;0.55;0.10;;;9.70;99.90;;;;;;5013390;28;20033;-86
2023/10/28 03:38:35;;;;;;;0.80;0.10;;;9.70;99.90;;;;;;5025091;28;20068;-91
2023/10/28 03:41:11;;;;;;;0.63;0.10;;;9.70;99.90;;;;;;5028836;28;20032;-89
2023/10/28 03:43:38;;;;;;;0.82;0.20;;;9.70;99.90;;;;;;5022403;28;20076;-87
2023/10/28 03:46:04;;;;;;;0.98;0.10;;;9.70;99.90;;;;;;5023735;28;20030;-90
2023/10/28 03:48:30;;;;;;;2.05;0.10;;;9.70;99.90;;;;;;5019625;28;20034;-89
2023/10/28 03:50:57;;;;;;;0.70;0.10;;;9.60;99.90;;;;;;5009330;28;20061;-85
2023/10/28 03:53:23;;;;;;;0.43;0.10;;;9.60;99.90;;;;;;4990662;28;20033;-88
2023/10/28 03:55:48;;;;;;;0.30;0.10;;;9.60;99.90;;;;;;5009699;28;20498;-89
2023/10/28 03:58:14;;;;;;;0.90;0.10;;;9.60;99.90;;;;;;4989035;28;20092;-90
2023/10/28 04:00:40;;;;;;;1.10;0.10;;;9.60;99.90;;;;;;5004765;28;20030;-89
2023/10/28 04:03:06;;;;;;;1.17;0.10;;;9.60;99.90;;;;;;5006708;28;20037;-85
2023/10/28 04:05:31;;;;;;;0.60;0.10;;;9.60;99.90;;;;;;5010329;28;20040;-86
2023/10/28 04:07:57;;;;;;;0.45;0.10;;;9.60;99.90;;;;;;5009137;28;20462;-90
2023/10/28 04:10:23;;;;;;;1.20;0.10;;;9.60;99.90;;;;;;5008507;28;20040;-87
2023/10/28 04:12:49;;;;;;;1.92;0.20;;;9.70;99.90;;;;;;5006555;28;20049;-87
2023/10/28 04:15:16;;;;;;;0.65;0.10;;;9.70;99.90;;;;;;5008018;28;20152;-87
2023/10/28 04:17:42;;;;;;;0.73;0.20;;;9.70;99.90;;;;;;5024253;28;20022;-89
2023/10/28 04:20:10;;;;;;;0.93;0.10;;;9.70;99.90;;;;;;4993502;28;20490;-90
2023/10/28 04:22:36;;;;;;;0.98;0.10;;;9.70;99.90;;;;;;5020070;28;20596;-87
2023/10/28 04:25:02;;;;;;;0.63;0.17;;;9.80;99.90;;;;;;4987760;28;20030;-88
2023/10/28 04:27:28;;;;;;;0.95;0.20;;;9.70;99.90;;;;;;5004569;28;20052;-90
2023/10/28 04:29:54;;;;;;;0.50;0.20;;;9.70;99.90;;;;;;5024142;28;20108;-88
2023/10/28 04:32:22;;;;;;;1.13;0.38;;;9.70;99.90;;;;;;5023013;28;20133;-87
2023/10/28 04:34:50;;;;;;;2.15;0.22;;;9.70;99.90;;;;;;4993360;28;20120;-87
2023/10/28 04:37:16;;;;;;;1.30;0.20;;;9.70;99.90;;;;;;5010056;28;20026;-87
2023/10/28 04:39:41;;;;;;;0.65;0.20;;;9.70;99.90;;;;;;5006196;28;20053;-85
2023/10/28 04:42:07;;;;;;;0.88;0.20;;;9.70;99.90;;;;;;5007035;28;20019;-89
2023/10/28 04:44:33;;;;;;;1.15;0.20;;;9.80;99.90;;;;;;5030377;28;20080;-87
2023/10/28 04:47:01;;;;;;;0.82;0.20;;;9.70;99.90;;;;;;5006961;28;20105;-87
2023/10/28 04:49:28;;;;;;;1.67;0.20;;;9.80;99.90;;;;;;5009447;28;20386;-89
2023/10/28 04:51:54;;;;;;;0.50;0.15;;;9.80;99.90;;;;;;5026460;28;20029;-86
2023/10/28 04:54:21;;;;;;;0.73;0.22;;;9.70;99.90;;;;;;5028991;28;20518;-89
2023/10/28 04:56:46;;;;;;;0.70;0.20;;;9.80;99.90;;;;;;5012757;28;20376;-90
2023/10/28 04:59:12;;;;;;;0.52;0.20;;;9.80;99.90;;;;;;5028922;28;20079;-88
2023/10/28 05:01:38;;;;;;;0.38;0.10;;;9.80;99.90;;;;;;5025008;28;20318;-85
2023/10/28 05:04:05;;;;;;;1.48;0.20;;;9.80;99.90;;;;;;5023480;28;20021;-85
2023/10/28 05:06:31;;;;;;;0.88;0.10;;;9.70;99.90;;;;;;5028573;28;20207;-87
2023/10/28 05:08:57;;;;;;;1.17;0.20;;;9.70;99.90;;;;;;5025908;28;20038;-88
2023/10/28 05:11:24;;;;;;;0.30;0.10;;;9.70;99.90;;;;;;5025540;28;20037;-89
2023/10/28 05:13:51;;;;;;;0.40;0.15;;;9.70;99.90;;;;;;5006831;28;20034;-88
2023/10/28 05:16:19;;;;;;;0.80;0.20;;;9.60;99.90;;;;;;5007609;28;20474;-89
2023/10/28 05:18:45;;;;;;;0.40;0.10;;;9.60;99.90;;;;;;5028124;28;20040;-86
2023/10/28 05:21:11;;;;;;;0.60;0.20;;;9.60;99.90;;;;;;5027915;28;20071;-86
2023/10/28 05:23:38;;;;;;;0.88;0.20;;;9.70;99.90;;;;;;5024721;28;20022;-87
2023/10/28 05:26:04;;;;;;;1.60;0.20;;;9.70;99.90;;;;;;5024180;28;20055;-86
2023/10/28 05:28:31;;;;;;;0.73;0.20;;;9.70;99.90;;;;;;5033412;28;20052;-85
2023/10/28 05:30:58;;;;;;;1.98;0.20;;;9.70;99.90;;;;;;5027426;28;20500;-86
2023/10/28 05:33:26;;;;;;;0.80;0.22;;;9.70;99.90;;;;;;5021325;28;20447;-89
2023/10/28 05:35:51;;;;;;;1.10;0.20;;;9.70;99.90;;;;;;5006748;28;20041;-89
2023/10/28 05:38:17;;;;;;;1.02;0.20;;;9.70;99.90;;;;;;5011068;28;20567;-84
2023/10/28 05:40:43;;;;;;;0.63;0.20;;;9.70;99.90;;;;;;5008870;28;20059;-86
2023/10/28 05:43:10;;;;;;;0.65;0.20;;;9.70;99.90;;;;;;5011189;28;20049;-85
2023/10/28 05:45:37;;;;;;;0.88;0.20;;;9.70;99.90;;;;;;5014365;28;20099;-85
2023/10/28 05:48:03;;;;;;;2.25;0.30;;;9.70;99.90;;;;;;5031699;28;20068;-88
2023/10/28 05:50:29;;;;;;;0.43;0.30;;;9.70;99.90;;;;;;5030447;28;20131;-86
2023/10/28 05:52:55;;;;;;;0.63;0.15;;;9.70;99.90;;;;;;5026297;28;20029;-89
2023/10/28 05:55:22;;;;;;;0.90;0.30;;;9.70;99.90;;;;;;5045277;28;20112;-85
2023/10/28 05:57:47;;;;;;;0.80;0.20;;;9.70;99.90;;;;;;5030531;28;20025;-88
2023/10/28 06:00:13;;;;;;;1.05;0.20;;;9.70;99.90;;;;;;5031869;28;20040;-90
2023/10/28 06:02:40;;;;;;;0.80;0.20;;;9.70;99.90;;;;;;5030855;28;20087;-90
2023/10/28 06:05:08;;;;;;;0.82;0.17;;;9.70;99.90;;;;;;5046429;28;20068;-88
2023/10/28 06:07:34;;;;;;;1.70;0.20;;;9.70;99.90;;;;;;5013061;28;20040;-91
2023/10/28 06:09:59;;;;;;;0.90;0.20;;;9.70;99.90;;;;;;5031144;28;20060;-88
2023/10/28 06:12:25;;;;;;;1.40;0.30;;;9.70;99.90;;;;;;5026641;28;20457;-89
2023/10/28 06:14:53;;;;;;;0.80;0.20;;;9.70;99.90;;;;;;5047523;28;20036;-91
2023/10/28 06:17:20;;;;;;;0.80;0.20;;;9.80;99.90;;;;;;5015045;28;20029;-91
2023/10/28 06:19:46;;;;;;;1.15;0.20;;;9.80;99.90;;;;;;5011801;28;20025;-91
2023/10/28 06:22:12;;;;;;;1.08;0.20;;;9.70;99.90;;;;;;5027617;28;20115;-90
2023/10/28 06:24:39;;;;;;;0.90;0.28;;;9.80;99.90;;;;;;5030655;28;20400;-90
2023/10/28 06:27:05;;;;;;;0.70;0.20;;;9.80;99.90;;;;;;5030610;28;20036;-90
2023/10/28 06:29:31;;;;;;;1.27;0.20;;;9.70;99.90;;;;;;5026567;28;20045;-90
2023/10/28 06:32:00;;;;;;;0.50;0.20;;;9.70;99.90;;;;;;5012348;28;20097;-88
2023/10/28 06:34:29;;;;;;;0.90;0.30;;;9.80;99.90;;;;;;5030443;28;20030;-87
2023/10/28 06:36:55;;;;;;;1.55;0.20;;;9.80;99.90;;;;;;5034735;28;20021;-88
2023/10/28 06:39:21;;;;;;;0.80;0.20;;;9.80;99.90;;;;;;5031025;28;20030;-86
2023/10/28 06:41:47;;;;;;;1.00;0.20;;;9.80;99.90;;;;;;5031134;28;20119;-87
2023/10/28 06:44:13;;;;;;;1.80;0.20;;;9.80;99.90;;;;;;5031539;28;20057;-86
2023/10/28 06:46:39;;;;;;;0.70;0.20;;;9.80;99.90;;;;;;5045580;28;20190;-87
2023/10/28 06:49:06;;;;;;;1.75;0.20;;;9.90;99.90;;;;;;5027274;28;20033;-87
2023/10/28 06:51:35;;;;;;;0.85;0.30;;;9.80;99.90;;;;;;5041652;28;20041;-89
2023/10/28 06:54:02;;;;;;;1.05;0.30;;;9.90;99.90;;;;;;5043346;28;20477;-89
2023/10/28 06:56:28;;;;;;;0.95;0.30;;;9.90;99.90;;;;;;5034836;28;20025;-88
2023/10/28 06:58:54;;;;;;;0.60;0.20;;;9.90;99.90;;;;;;5028670;28;20061;-89
2023/10/28 07:01:20;;;;;;;2.10;0.30;;;9.90;99.90;;;;;;5042803;28;20021;-89
2023/10/28 07:03:46;;;;;;;0.50;0.20;;;9.90;99.90;;;;;;5046938;28;20021;-88
2023/10/28 07:06:15;;;;;;;1.27;0.57;;;9.90;99.90;;;;;;5032333;28;20029;-87
2023/10/28 07:08:41;;;;;;;1.45;0.30;;;9.90;99.90;;;;;;5047280;28;20040;-87
2023/10/28 07:11:07;;;;;;;1.10;0.30;;;9.90;99.90;;;;;;5044495;28;20441;-90
2023/10/28 07:13:33;;;;;;;1.05;0.52;;;9.90;99.90;;;;;;5048067;28;20033;-89
2023/10/28 07:16:06;;;;;;;1.00;0.20;;;10.00;99.90;;;;;;5030437;28;20021;-90
2023/10/28 07:18:32;;;;;;;1.17;0.20;;;10.00;99.90;;;;;;5047290;28;20037;-89
2023/10/28 07:20:58;;;;;;;0.80;0.17;;;10.00;99.90;;;;;;5034210;28;20021;-90
2023/10/28 07:23:27;;;;;;;0.60;0.20;;;10.10;99.90;;;;;;5033526;28;20033;-90
2023/10/28 07:25:58;;;;;;;0.90;0.20;;;10.00;99.90;;;;;;5040747;28;20382;-90
2023/10/28 07:28:24;;;;;;;1.15;0.20;;;10.10;99.90;;;;;;5030292;28;20075;-86
2023/10/28 07:30:51;;;;;;;0.40;0.20;;;10.10;99.90;;;;;;5047771;28;20025;-91
2023/10/28 07:33:21;;;;;;;1.60;0.22;;;10.10;99.90;;;;;;5034793;28;20039;-90
2023/10/28 07:35:48;;;;;;;1.42;0.20;;;10.10;99.90;;;;;;5030193;28;20461;-90
2023/10/28 07:38:17;;;;;;;0.80;0.20;;;10.20;99.90;;;;;;5049112;28;20029;-91
2023/10/28 07:40:44;;;;;;;1.08;0.30;;;10.20;99.90;;;;;;5031745;28;20087;-90
2023/10/28 07:43:14;;;;;;;1.20;0.30;;;10.20;99.90;;;;;;5039015;28;20032;-90
2023/10/28 07:45:40;;;;;;;;;;;10.30;99.90;;;;;;5046192;28;20115;-88
2023/10/28 07:48:07;;;;;;;1.23;0.30;;;10.40;99.90;;;;;;5048202;28;20374;-89
2023/10/28 07:50:33;;;;;;;0.80;0.22;;;10.40;99.90;;;;;;5029458;28;20440;-92
2023/10/28 07:52:59;;;;;;;0.95;0.20;;;10.40;99.90;;;;;;5013766;28;20140;-89
2023/10/28 07:55:25;;;;;;;1.20;0.20;;;10.40;99.90;;;;;;5033556;28;20105;-91
2023/10/28 07:57:50;;;;;;;1.10;0.20;;;10.40;99.90;;;;;;5048788;28;20033;-89
2023/10/28 08:00:16;;;;;;;1.42;0.20;;;10.50;99.90;;;;;;5044385;28;20060;-87
2023/10/28 08:02:45;;;;;;;1.17;0.22;;;10.50;99.90;;;;;;5042008;28;20049;-87
2023/10/28 08:05:14;;;;;;;1.60;0.40;;;10.50;99.90;;;;;;5008394;28;20492;-88
2023/10/28 08:07:40;;;;;;;0.95;0.30;;;10.60;99.90;;;;;;5007931;28;20081;-89
2023/10/28 08:10:07;;;;;;;0.82;0.20;;;10.60;99.90;;;;;;5022040;28;20041;-89
2023/10/28 08:12:34;;;;;;;0.85;0.30;;;10.60;99.90;;;;;;5022121;28;20029;-87
2023/10/28 08:15:03;;;;;;;0.55;0.20;;;10.70;99.90;;;;;;5028126;28;20571;-86
2023/10/28 08:17:31;;;;;;;1.40;0.25;;;10.70;99.90;;;;;;5040886;28;20485;-88
2023/10/28 08:19:57;;;;;;;2.03;0.20;;;10.70;99.90;;;;;;5024445;28;20037;-89
2023/10/28 08:22:24;;;;;;;1.98;0.30;;;10.70;99.90;;;;;;5025324;28;20078;-88
2023/10/28 08:24:50;;;;;;;1.15;0.30;;;10.70;99.90;;;;;;5022494;28;20077;-87
2023/10/28 08:27:15;;;;;;;1.35;0.20;;;10.70;99.90;;;;;;5021869;28;20029;-88
2023/10/28 08:29:43;;;;;;;0.70;0.20;;;10.80;99.90;;;;;;5039762;28;20051;-87
2023/10/28 08:32:10;;;;;;;0.82;0.20;;;10.80;99.90;;;;;;5037451;28;20072;-89
2023/10/28 08:34:36;;;;;;;0.98;0.20;;;10.80;99.90;;;;;;5039046;28;20052;-87
2023/10/28 08:37:02;;;;;;;2.13;0.20;;;10.90;99.90;;;;;;5028772;28;20116;-88
2023/10/28 08:39:29;;;;;;;0.60;0.10;;;10.90;99.90;;;;;;5022424;28;20171;-88
2023/10/28 08:41:56;;;;;;;1.27;0.10;;;11.00;99.90;;;;;;5028685;28;20480;-86
2023/10/28 08:44:27;;;;;;;4.38;0.30;;;11.10;99.90;;;;;;5022955;28;20110;-86
2023/10/28 08:46:56;;;;;;;0.98;0.30;;;11.10;99.90;;;;;;5040212;28;20079;-91
2023/10/28 08:49:25;;;;;;;0.93;0.10;;;11.10;99.90;;;;;;5002203;28;20091;-89
2023/10/28 08:51:58;;;;;;;1.15;0.30;;;11.10;99.90;;;;;;5038991;28;20497;-86
2023/10/28 08:54:26;;;;;;;0.70;0.10;;;11.10;99.90;;;;;;5023193;28;20094;-90
2023/10/28 08:56:56;;;;;;;0.80;0.43;;;11.20;99.90;;;;;;5040464;28;20139;-91
2023/10/28 08:59:22;;;;;;;1.23;0.10;;;11.20;99.90;;;;;;5024866;28;20455;-89
2023/10/28 09:01:48;;;;;;;1.02;0.20;;;11.20;99.90;;;;;;5040152;28;20081;-90
2023/10/28 09:04:15;;;;;;;0.85;0.10;;;11.20;99.90;;;;;;5005002;28;20136;-91
2023/10/28 09:06:42;;;;;;;1.25;0.20;;;11.20;99.90;;;;;;5028664;28;20033;-88
2023/10/28 09:09:12;;;;;;;0.40;0.10;;;11.20;99.90;;;;;;5024085;28;20102;-87
2023/10/28 09:11:39;;;;;;;0.45;0.10;;;11.30;99.90;;;;;;5017051;28;20043;-88
2023/10/28 09:14:08;;;;;;;0.75;0.10;;;11.30;99.90;;;;;;5034800;28;20033;-90
2023/10/28 09:16:36;;;;;;;0.98;0.20;;;11.30;99.90;;;;;;5009496;28;20077;-89
2023/10/28 09:19:03;;;;;;;1.33;0.15;;;11.40;99.90;;;;;;5024160;28;20072;-87
2023/10/28 09:21:29;;;;;;;1.10;0.10;;;11.30;99.90;;;;;;5025191;28;20029;-88
2023/10/28 09:24:00;;;;;;;0.65;0.20;;;11.30;99.90;;;;;;5025502;28;20033;-90
2023/10/28 09:26:27;;;;;;;0.75;0.15;;;11.30;99.90;;;;;;5038477;28;20029;-92
2023/10/28 09:28:52;;;;;;;1.00;0.20;;;11.20;99.90;;;;;;5032952;28;20040;-86
2023/10/28 09:31:25;;;;;;;1.70;0.17;;;11.30;99.90;;;;;;5028166;28;20021;-85
2023/10/28 09:33:51;;;;;;;0.73;0.10;;;11.30;99.90;;;;;;5037266;28;20122;-86
2023/10/28 09:36:17;;;;;;;1.05;0.20;;;11.30;99.90;;;;;;5021354;28;20470;-86
2023/10/28 09:38:45;;;;;;;1.50;0.10;;;11.30;99.90;;;;;;5024759;28;20084;-87
2023/10/28 09:41:12;;;;;;;0.88;0.10;;;11.30;99.90;;;;;;5021326;28;20065;-85
2023/10/28 09:43:38;;;;;;;0.63;0.15;;;11.40;99.90;;;;;;5037795;28;20568;-86
2023/10/28 09:46:05;;;;;;;1.10;0.15;;;11.40;99.90;;;;;;5004472;28;22466;-89
2023/10/28 09:48:45;;;;;;;0.63;0.13;;;11.50;99.90;;;;;;5006012;28;20088;-86
2023/10/28 09:51:13;;;;;;;;;;;11.50;99.90;;;;;;5024717;28;20021;-88
2023/10/28 09:53:43;;;;;;;1.25;0.17;;;11.50;99.90;;;;;;5022074;28;20043;-88
2023/10/28 09:56:12;;;;;;;;;;;11.50;99.90;;;;;;5023850;28;20426;-90
2023/10/28 09:59:00;;;;;;;0.93;0.10;;;11.60;99.90;;;;;;5037186;28;19916;-87
2023/10/28 10:01:35;;;;;;;2.25;0.20;;;11.70;99.90;;;;;;5037729;28;20496;-86
2023/10/28 10:04:39;;;;;;;1.10;0.20;;;11.90;99.90;;;;;;5037273;28;20450;-89
2023/10/28 10:07:06;;;;;;;0.68;0.20;;;12.10;99.90;;;;;;5039690;28;20056;-89
2023/10/28 10:09:47;;;;;;;1.30;0.30;;;12.10;99.90;;;;;;5007746;28;20167;-86
2023/10/28 10:12:13;;;;;;;2.08;0.20;;;12.20;99.90;;;;;;5024160;28;20068;-90
2023/10/28 10:14:47;;;;;;;1.35;0.35;;;12.20;99.90;;;;;;5005271;28;20507;-89
2023/10/28 10:17:19;;;;;;;0.90;0.10;;;12.30;99.90;;;;;;5036280;28;20519;-88
2023/10/28 10:19:48;;;;;;;1.08;0.20;;;12.40;99.90;;;;;;5018702;28;20135;-88
2023/10/28 10:22:18;;;;;;;2.05;0.20;;;12.50;99.90;;;;;;5021405;28;20383;-87
2023/10/28 10:24:50;;;;;;;1.60;0.20;;;12.50;99.90;;;;;;5022588;28;20056;-88
2023/10/28 10:27:35;;;;;;;2.38;0.40;;;12.60;99.90;;;;;;5021387;28;20052;-85
2023/10/28 10:30:09;;;;;;;1.83;0.20;;;12.60;99.90;;;;;;5020609;28;20142;-88
2023/10/28 10:33:01;;;;;;;1.65;0.20;;;12.60;99.90;;;;;;5015298;28;20036;-85
2023/10/28 10:35:31;;;;;;;0.85;0.20;;;12.70;99.90;;;;;;5030617;28;20163;-86
2023/10/28 10:38:10;;;;;;;1.73;0.10;;;12.90;99.90;;;;;;5017506;28;20067;-86
2023/10/28 10:40:53;;;;;;;1.00;0.20;;;12.90;99.90;;;;;;5024157;28;20086;-86
2023/10/28 10:43:20;;;;;;;0.82;0.20;;;12.90;99.90;;;;;;5040148;28;20049;-89
2023/10/28 10:45:47;;;;;;;2.10;0.20;;;13.00;99.90;;;;;;5025231;28;20036;-87
2023/10/28 10:48:13;;;;;;;1.33;0.20;;;13.00;99.90;;;;;;5025947;28;20392;-86
2023/10/28 10:50:40;;;;;;;0.75;0.10;;;13.00;99.90;;;;;;5043524;28;20068;-89
2023/10/28 10:53:06;;;;;;;2.05;0.20;;;13.00;99.90;;;;;;5042778;28;20028;-86
2023/10/28 10:55:33;;;;;;;0.75;0.10;;;13.00;99.90;;;;;;5043521;28;20056;-87
2023/10/28 10:57:59;;;;;;;5.28;0.30;;;13.10;99.90;;;;;;5041382;28;20029;-88
2023/10/28 11:00:26;;;;;;;1.60;0.20;;;13.00;99.90;;;;;;5043245;28;20363;-86
2023/10/28 11:02:56;;;;;;;2.45;0.25;;;13.30;99.90;;;;;;5042763;28;20369;-87
2023/10/28 11:05:22;;;;;;;2.03;0.20;;;13.50;99.90;;;;;;5023101;28;20450;-87
2023/10/28 11:07:48;;;;;;;1.95;0.40;;;13.70;99.90;;;;;;5043557;28;20057;-90
2023/10/28 11:10:14;;;;;;;1.10;0.20;;;13.80;99.90;;;;;;5025102;28;20045;-89
2023/10/28 11:12:41;;;;;;;1.77;0.20;;;13.80;99.90;;;;;;5040485;28;20118;-87
2023/10/28 11:15:08;;;;;;;1.35;0.20;;;13.90;99.90;;;;;;5023574;28;20034;-87
2023/10/28 11:17:34;;;;;;;1.58;0.20;;;13.90;99.90;;;;;;5031270;28;20029;-85
2023/10/28 11:20:03;;;;;;;0.82;0.20;;;13.80;99.90;;;;;;5022862;28;20030;-90
2023/10/28 11:22:29;;;;;;;1.00;0.17;;;13.70;99.90;;;;;;5023640;28;20036;-89
2023/10/28 11:24:56;;;;;;;1.67;0.28;;;13.70;99.90;;;;;;5043871;28;20090;-90
2023/10/28 11:27:24;;;;;;;1.30;0.28;;;13.50;99.90;;;;;;5042498;28;20048;-86
2023/10/28 11:29:51;;;;;;;1.20;0.20;;;13.40;99.90;;;;;;5030215;28;20045;-87
2023/10/28 11:32:21;;;;;;;1.90;0.20;;;13.40;99.90;;;;;;5042310;28;20029;-86
2023/10/28 11:34:48;;;;;;;1.88;0.20;;;13.60;99.90;;;;;;5023983;28;20204;-86
2023/10/28 11:37:14;;;;;;;2.78;0.22;;;13.80;99.90;;;;;;5023494;28;20061;-87
2023/10/28 11:39:44;;;;;;;2.75;0.20;;;13.80;99.90;;;;;;5039509;28;20029;-88
2023/10/28 11:42:15;;;;;;;2.28;0.20;;;13.70;99.90;;;;;;5041157;28;20032;-89
2023/10/28 11:44:41;;;;;;;0.60;0.20;;;13.80;99.90;;;;;;5041752;28;20057;-87
2023/10/28 11:47:09;;;;;;;1.88;0.20;;;13.80;99.90;;;;;;5021798;28;20470;-87
2023/10/28 11:49:34;;;;;;;1.55;0.20;;;13.80;99.90;;;;;;5022962;28;20060;-88
2023/10/28 11:52:00;;;;;;;1.77;0.20;;;13.80;99.90;;;;;;5041479;28;20401;-90
2023/10/28 11:54:26;;;;;;;2.85;0.20;;;13.80;99.90;;;;;;5021696;28;20056;-86
2023/10/28 11:56:52;;;;;;;1.23;0.22;;;13.80;99.90;;;;;;5040350;28;20465;-88
2023/10/28 11:59:18;;;;;;;2.33;0.20;;;13.70;99.90;;;;;;5008440;28;20563;-89
2023/10/28 12:01:44;;;;;;;1.83;0.20;;;13.70;99.90;;;;;;5039546;28;20078;-87
2023/10/28 12:04:10;;;;;;;2.53;0.20;;;13.60;99.90;;;;;;5025106;28;20561;-88
2023/10/28 12:06:36;;;;;;;2.13;0.20;;;13.60;99.90;;;;;;5029339;28;20381;-87
2023/10/28 12:09:05;;;;;;;2.13;0.20;;;13.60;99.90;;;;;;5039369;28;20029;-87
2023/10/28 12:11:31;;;;;;;1.55;0.20;;;13.60;99.90;;;;;;5025270;28;20028;-89
2023/10/28 12:13:57;;;;;;;1.85;0.20;;;13.60;99.90;;;;;;5022274;28;20025;-87
2023/10/28 12:16:24;;;;;;;2.42;0.20;;;13.60;99.90;;;;;;5039678;28;20509;-89
2023/10/28 12:18:50;;;;;;;1.33;0.10;;;13.60;99.90;;;;;;5031031;28;20031;-90
2023/10/28 12:21:17;;;;;;;2.70;0.52;;;13.70;99.90;;;;;;5042845;28;20036;-88
2023/10/28 12:23:44;;;;;;;1.25;0.30;;;13.70;99.90;;;;;;5039754;28;20044;-89
2023/10/28 12:26:13;;;;;;;2.03;0.10;;;13.70;99.90;;;;;;5020741;28;20028;-84
2023/10/28 12:28:38;;;;;;;1.60;0.20;;;13.70;99.90;;;;;;5036220;28;20045;-88
2023/10/28 12:31:04;;;;;;;2.08;0.20;;;13.80;99.90;;;;;;5025285;28;20330;-89
2023/10/28 12:33:31;;;;;;;2.60;0.20;;;13.70;99.90;;;;;;5028088;28;20028;-87
2023/10/28 12:35:57;;;;;;;1.75;0.13;;;13.80;99.90;;;;;;5041625;28;20056;-87
2023/10/28 12:38:22;;;;;;;1.45;0.10;;;13.70;99.90;;;;;;5037465;28;20017;-88
2023/10/28 12:40:48;;;;;;;2.50;0.20;;;13.70;99.90;;;;;;5039227;28;20029;-89
2023/10/28 12:43:14;;;;;;;2.35;0.22;;;13.70;99.90;;;;;;5027188;28;20100;-87
2023/10/28 12:45:40;;;;;;;2.88;0.20;;;13.70;99.90;;;;;;5021465;28;20536;-88
2023/10/28 12:48:07;;;;;;;3.97;0.28;;;13.60;99.90;;;;;;5005136;28;20026;-89
2023/10/28 12:50:34;;;;;;;2.08;0.20;;;13.50;99.90;;;;;;5035182;28;20430;-87
2023/10/28 12:52:59;;;;;;;2.55;0.30;;;13.60;99.90;;;;;;5020964;28;20037;-89